This is the latest recevied weather packets stored in our database for station/object WB4ROX. If no packets are shown the sender has not sent any weather packets the latest 10 day(s).
| Time | Temp. | Humidity | Pressure | Rain* | Wind** | Luminosity | Snow |
|---|---|---|---|---|---|---|---|
| 1777482424 | 14.44° C | 84% | 1015.9 hPa | 0 mm | - | 479 W/m² | - |
| 1777482122 | 13.89° C | 86% | 1016 hPa | 0 mm | - | 173 W/m² | - |
| 1777481820 | 13.89° C | 86% | 1015.9 hPa | 0 mm | - | 293 W/m² | - |
| 1777481517 | 13.89° C | 86% | 1016 hPa | 0 mm | - | 276 W/m² | - |
| 1777481213 | 13.89° C | 85% | 1016 hPa | 0 mm | - | 149 W/m² | - |
| 1777480910 | 13.89° C | 86% | 1015.9 hPa | 0 mm | - | 98 W/m² | - |
| 1777480606 | 13.89° C | 87% | 1015.9 hPa | 0 mm | - | 247 W/m² | - |
| 1777480304 | 13.89° C | 86% | 1016 hPa | 0 mm | - | 270 W/m² | - |
| 1777479999 | 13.89° C | 85% | 1016.1 hPa | 0 mm | - | 100 W/m² | - |
| 1777479697 | 13.89° C | 87% | 1016.2 hPa | 0 mm | - | 226 W/m² | - |
| 1777479395 | 13.33° C | 86% | 1016.4 hPa | 0 mm | - | 215 W/m² | - |
| 1777479090 | 13.89° C | 86% | 1016.6 hPa | 0 mm | - | 253 W/m² | - |
| 1777478787 | 13.33° C | 87% | 1016.7 hPa | 0 mm | - | 416 W/m² | - |
| 1777478484 | 12.78° C | 90% | 1016.6 hPa | 0 mm | - | 970 W/m² | - |
| 1777478181 | 12.78° C | 88% | 1016.7 hPa | 0 mm | - | 263 W/m² | - |
| 1777477877 | 12.78° C | 91% | 1016.6 hPa | 0 mm | - | 357 W/m² | - |
| 1777477572 | 12.78° C | 91% | 1016.6 hPa | 0 mm | - | 288 W/m² | - |
| 1777477269 | 12.78° C | 93% | 1016.8 hPa | 0 mm | - | 312 W/m² | - |
| 1777476965 | 12.78° C | 94% | 1016.8 hPa | 0 mm | - | 600 W/m² | - |
| 1777476664 | 12.22° C | 95% | 1017 hPa | 0 mm | - | 469 W/m² | - |
| 1777476360 | 11.67° C | 94% | 1016.6 hPa | 0 mm | - | 280 W/m² | - |
| 1777476056 | 11.67° C | 94% | 1016.7 hPa | 1.78 mm | - | 94 W/m² | - |
| 1777475752 | 11.67° C | 94% | 1016.8 hPa | 1.78 mm | - | 169 W/m² | - |
| 1777475449 | 11.67° C | 93% | 1016.8 hPa | 0 mm | - | 194 W/m² | - |
| 1777475149 | 12.22° C | 93% | 1016.9 hPa | 0 mm | - | 96 W/m² | - |
* Rain latest hour (hover to see other rain measurements)
** Current wind speed in m/s (hover to see current wind gust speed)